PWSweather.com
Personal Weather Stations
Station Observations
IPUMONTE2
MontelabbateIT 61025

MontelabbateIT 61025

Lat: 43.848, Lon: 12.7895

Elevation: 196

Station Type: LaCrosse WS3600

http://www.montelabbatemet.altervista.org/

High Low Average
Temperature 91.7°F33.2°C 73.5°F23.1°C 81.8°F27.7°C
Dew Point 70.1°F21.2°C 43.4°F6.3°C 64.1°F17.8°C
Winds 8.7 mph 14.0 kmh Calm Calm 3.0 mph S4.8 kmh S
Wind Gusts 10.9 mph17.5 kmh -- 5.0 mph8.0 kmh
Humidity 72% 36% 56%
Pressure 29.78 in1008.5 mb 29.72 in1006.4 mb -
Precipitation 0.00 in0.0 mm - -
Hour Temp Dew Point Humidity Winds Wind Gusts Pressure Precip Precip Rate Daily Precip Total
12:01 AM 77.7°F25.4°C 67.2°F19.6°C 70% 2.5 mph S4.0 kmh S 4.0 mph6.4 kmh 29.78 in1008.5 mb 0.00 in0.0 mm 0.00 in0.0 mm 0.00 in0.0 mm
12:06 AM 78.6°F25.9°C 66.2°F19.0°C 66% 1.8 mph SSW2.9 kmh SSW 4.0 mph6.4 kmh 29.78 in1008.5 mb 0.00 in0.0 mm 0.00 in0.0 mm 0.00 in0.0 mm
12:11 AM 79.3°F26.3°C 66.0°F18.9°C 64% 2.2 mph S3.5 kmh S 3.1 mph5.0 kmh 29.78 in1008.5 mb 0.00 in0.0 mm 0.00 in0.0 mm 0.00 in0.0 mm
12:16 AM 81.3°F27.4°C 64.5°F18.1°C 57% 2.9 mph S4.7 kmh S 2.9 mph4.7 kmh 29.78 in1008.5 mb 0.00 in0.0 mm 0.00 in0.0 mm 0.00 in0.0 mm
12:21 AM 81.3°F27.4°C 66.1°F18.9°C 60% Calm Calm 2.9 mph4.7 kmh 29.77 in1008.1 mb 0.00 in0.0 mm 0.00 in0.0 mm 0.00 in0.0 mm
12:26 AM 79.5°F26.4°C 65.8°F18.8°C 63% 0.7 mph ENE1.1 kmh ENE 0.8 mph1.3 kmh 29.78 in1008.5 mb 0.00 in0.0 mm 0.00 in0.0 mm 0.00 in0.0 mm
12:31 AM 78.4°F25.8°C 66.1°F18.9°C 66% 1.1 mph WNW1.8 kmh WNW 1.1 mph1.8 kmh 29.78 in1008.5 mb 0.00 in0.0 mm 0.00 in0.0 mm 0.00 in0.0 mm
12:36 AM 77.9°F25.5°C 66.0°F18.9°C 67% Calm Calm 1.1 mph1.8 kmh 29.78 in1008.5 mb 0.00 in0.0 mm 0.00 in0.0 mm 0.00 in0.0 mm
12:41 AM 77.3°F25.2°C 65.9°F18.8°C 68% Calm Calm -- 29.78 in1008.5 mb 0.00 in0.0 mm 0.00 in0.0 mm 0.00 in0.0 mm
12:46 AM 76.8°F24.9°C 66.3°F19.1°C 70% 0.7 mph SW1.1 kmh SW 1.5 mph2.4 kmh 29.78 in1008.5 mb 0.00 in0.0 mm 0.00 in0.0 mm 0.00 in0.0 mm
12:51 AM 76.6°F24.8°C 66.5°F19.2°C 71% 3.0 mph SSW4.8 kmh SSW 4.2 mph6.8 kmh 29.78 in1008.5 mb 0.00 in0.0 mm 0.00 in0.0 mm 0.00 in0.0 mm
12:56 AM 76.4°F24.7°C 66.4°F19.1°C 71% 2.4 mph SSW3.9 kmh SSW 4.2 mph6.8 kmh 29.78 in1008.5 mb 0.00 in0.0 mm 0.00 in0.0 mm 0.00 in0.0 mm
01:01 AM 75.9°F24.4°C 66.2°F19.0°C 72% 2.4 mph S3.9 kmh S 2.9 mph4.7 kmh 29.78 in1008.5 mb 0.00 in0.0 mm 0.00 in0.0 mm 0.00 in0.0 mm
01:07 AM 75.9°F24.4°C 66.2°F19.0°C 72% 1.2 mph SW1.9 kmh SW 2.4 mph3.9 kmh 29.77 in1008.1 mb 0.00 in0.0 mm 0.00 in0.0 mm 0.00 in0.0 mm
01:12 AM 75.7°F24.3°C 66.0°F18.9°C 72% 1.5 mph SSW2.4 kmh SSW 2.9 mph4.7 kmh 29.77 in1008.1 mb 0.00 in0.0 mm 0.00 in0.0 mm 0.00 in0.0 mm
01:17 AM 75.7°F24.3°C 66.0°F18.9°C 72% 2.9 mph SSW4.7 kmh SSW 2.9 mph4.7 kmh 29.76 in1007.8 mb 0.00 in0.0 mm 0.00 in0.0 mm 0.00 in0.0 mm
01:22 AM 75.7°F24.3°C 66.0°F18.9°C 72% 3.6 mph SSW5.8 kmh SSW 4.6 mph7.4 kmh 29.76 in1007.8 mb 0.00 in0.0 mm 0.00 in0.0 mm 0.00 in0.0 mm
01:27 AM 75.9°F24.4°C 66.2°F19.0°C 72% 4.8 mph SSW7.7 kmh SSW 6.4 mph10.3 kmh 29.76 in1007.8 mb 0.00 in0.0 mm 0.00 in0.0 mm 0.00 in0.0 mm
01:32 AM 75.7°F24.3°C 66.0°F18.9°C 72% 4.0 mph SSW6.4 kmh SSW 6.4 mph10.3 kmh 29.76 in1007.8 mb 0.00 in0.0 mm 0.00 in0.0 mm 0.00 in0.0 mm
01:37 AM 76.1°F24.5°C 66.0°F18.9°C 71% 3.4 mph SSW5.5 kmh SSW 5.8 mph9.3 kmh 29.77 in1008.1 mb 0.00 in0.0 mm 0.00 in0.0 mm 0.00 in0.0 mm
01:42 AM 75.9°F24.4°C 65.8°F18.8°C 71% 1.6 mph SSW2.6 kmh SSW 4.2 mph6.8 kmh 29.76 in1007.8 mb 0.00 in0.0 mm 0.00 in0.0 mm 0.00 in0.0 mm
01:47 AM 76.4°F24.7°C 65.1°F18.4°C 68% 2.0 mph SW3.2 kmh SW 2.2 mph3.5 kmh 29.76 in1007.8 mb 0.00 in0.0 mm 0.00 in0.0 mm 0.00 in0.0 mm
01:52 AM 76.4°F24.7°C 65.1°F18.4°C 68% 0.8 mph SW1.3 kmh SW 2.2 mph3.5 kmh 29.76 in1007.8 mb 0.00 in0.0 mm 0.00 in0.0 mm 0.00 in0.0 mm
01:57 AM 76.2°F24.6°C 64.9°F18.3°C 68% 2.0 mph SSW3.2 kmh SSW 2.0 mph3.2 kmh 29.76 in1007.8 mb 0.00 in0.0 mm 0.00 in0.0 mm 0.00 in0.0 mm
02:02 AM 76.2°F24.6°C 64.9°F18.3°C 68% 1.1 mph S1.8 kmh S 2.0 mph3.2 kmh 29.76 in1007.8 mb 0.00 in0.0 mm 0.00 in0.0 mm 0.00 in0.0 mm
02:07 AM 76.4°F24.7°C 65.1°F18.4°C 68% Calm Calm 2.0 mph3.2 kmh 29.76 in1007.8 mb 0.00 in0.0 mm 0.00 in0.0 mm 0.00 in0.0 mm
02:12 AM 76.6°F24.8°C 64.8°F18.2°C 67% 1.6 mph NE2.6 kmh NE 2.2 mph3.5 kmh 29.77 in1008.1 mb 0.00 in0.0 mm 0.00 in0.0 mm 0.00 in0.0 mm
02:17 AM 76.6°F24.8°C 64.8°F18.2°C 66% 1.4 mph NNE2.3 kmh NNE 2.6 mph4.2 kmh 29.76 in1007.8 mb 0.00 in0.0 mm 0.00 in0.0 mm 0.00 in0.0 mm
02:22 AM 77.1°F25.1°C 64.0°F17.8°C 64% 0.4 mph ENE0.6 kmh ENE 2.6 mph4.2 kmh 29.76 in1007.8 mb 0.00 in0.0 mm 0.00 in0.0 mm 0.00 in0.0 mm
02:27 AM 77.5°F25.3°C 63.9°F17.7°C 63% Calm Calm 2.2 mph3.5 kmh 29.76 in1007.8 mb 0.00 in0.0 mm 0.00 in0.0 mm 0.00 in0.0 mm
02:32 AM 76.8°F24.9°C 63.6°F17.6°C 64% Calm Calm 0.4 mph0.6 kmh 29.76 in1007.8 mb 0.00 in0.0 mm 0.00 in0.0 mm 0.00 in0.0 mm
02:37 AM 76.4°F24.7°C 63.7°F17.6°C 65% 2.4 mph SSW3.9 kmh SSW 3.1 mph5.0 kmh 29.77 in1008.1 mb 0.00 in0.0 mm 0.00 in0.0 mm 0.00 in0.0 mm
02:42 AM 76.2°F24.6°C 63.6°F17.6°C 65% 1.5 mph SSW2.4 kmh SSW 3.1 mph5.0 kmh 29.77 in1008.1 mb 0.00 in0.0 mm 0.00 in0.0 mm 0.00 in0.0 mm
02:47 AM 76.2°F24.6°C 63.6°F17.6°C 65% 1.7 mph S2.7 kmh S 2.6 mph4.2 kmh 29.78 in1008.5 mb 0.00 in0.0 mm 0.00 in0.0 mm 0.00 in0.0 mm
02:52 AM 76.1°F24.5°C 63.4°F17.4°C 65% 0.4 mph SSE0.6 kmh SSE 2.6 mph4.2 kmh 29.78 in1008.5 mb 0.00 in0.0 mm 0.00 in0.0 mm 0.00 in0.0 mm
02:57 AM 76.2°F24.6°C 63.6°F17.6°C 65% 0.4 mph SSE0.6 kmh SSE 2.2 mph3.5 kmh 29.78 in1008.5 mb 0.00 in0.0 mm 0.00 in0.0 mm 0.00 in0.0 mm
03:02 AM 76.6°F24.8°C 63.5°F17.5°C 64% Calm Calm 0.4 mph0.6 kmh 29.77 in1008.1 mb 0.00 in0.0 mm 0.00 in0.0 mm 0.00 in0.0 mm
03:07 AM 76.4°F24.7°C 63.3°F17.4°C 64% Calm Calm 0.4 mph0.6 kmh 29.78 in1008.5 mb 0.00 in0.0 mm 0.00 in0.0 mm 0.00 in0.0 mm
03:12 AM 75.7°F24.3°C 63.5°F17.5°C 66% Calm Calm -- 29.78 in1008.5 mb 0.00 in0.0 mm 0.00 in0.0 mm 0.00 in0.0 mm
03:17 AM 75.3°F24.1°C 63.6°F17.6°C 67% Calm Calm -- 29.77 in1008.1 mb 0.00 in0.0 mm 0.00 in0.0 mm 0.00 in0.0 mm
03:23 AM 74.8°F23.8°C 63.1°F17.3°C 67% Calm Calm -- 29.76 in1007.8 mb 0.00 in0.0 mm 0.00 in0.0 mm 0.00 in0.0 mm
03:27 AM 74.6°F23.7°C 63.4°F17.4°C 68% Calm Calm -- 29.76 in1007.8 mb 0.00 in0.0 mm 0.00 in0.0 mm 0.00 in0.0 mm
03:32 AM 74.6°F23.7°C 63.4°F17.4°C 68% 1.0 mph S1.6 kmh S 1.3 mph2.1 kmh 29.76 in1007.8 mb 0.00 in0.0 mm 0.00 in0.0 mm 0.00 in0.0 mm
03:38 AM 74.6°F23.7°C 63.4°F17.4°C 67% Calm Calm 1.3 mph2.1 kmh 29.75 in1007.5 mb 0.00 in0.0 mm 0.00 in0.0 mm 0.00 in0.0 mm
03:42 AM 74.4°F23.6°C 63.2°F17.3°C 68% 4.3 mph NNE6.9 kmh NNE 4.4 mph7.1 kmh 29.75 in1007.5 mb 0.00 in0.0 mm 0.00 in0.0 mm 0.00 in0.0 mm
03:48 AM 74.1°F23.4°C 62.9°F17.2°C 68% 2.5 mph NE4.0 kmh NE 4.4 mph7.1 kmh 29.74 in1007.1 mb 0.00 in0.0 mm 0.00 in0.0 mm 0.00 in0.0 mm
03:53 AM 74.1°F23.4°C 63.3°F17.4°C 69% Calm Calm 4.0 mph6.4 kmh 29.75 in1007.5 mb 0.00 in0.0 mm 0.00 in0.0 mm 0.00 in0.0 mm
03:58 AM 74.3°F23.5°C 63.0°F17.2°C 68% Calm Calm 2.6 mph4.2 kmh 29.74 in1007.1 mb 0.00 in0.0 mm 0.00 in0.0 mm 0.00 in0.0 mm
04:05 AM 74.3°F23.5°C 63.0°F17.2°C 68% 1.1 mph SW1.8 kmh SW 1.7 mph2.7 kmh 29.75 in1007.5 mb 0.00 in0.0 mm 0.00 in0.0 mm 0.00 in0.0 mm
04:13 AM 73.5°F23.1°C 63.3°F17.4°C 70% 0.5 mph SE0.8 kmh SE 1.7 mph2.7 kmh 29.75 in1007.5 mb 0.00 in0.0 mm 0.00 in0.0 mm 0.00 in0.0 mm
04:22 AM 74.3°F23.5°C 63.0°F17.2°C 68% 2.4 mph SW3.9 kmh SW 2.4 mph3.9 kmh 29.76 in1007.8 mb 0.00 in0.0 mm 0.00 in0.0 mm 0.00 in0.0 mm
04:30 AM 73.5°F23.1°C 62.8°F17.1°C 69% 2.0 mph SSW3.2 kmh SSW 3.5 mph5.6 kmh 29.76 in1007.8 mb 0.00 in0.0 mm 0.00 in0.0 mm 0.00 in0.0 mm
04:39 AM 73.7°F23.2°C 62.5°F16.9°C 67% 1.2 mph SSW1.9 kmh SSW 2.2 mph3.5 kmh 29.76 in1007.8 mb 0.00 in0.0 mm 0.00 in0.0 mm 0.00 in0.0 mm
04:47 AM 75.2°F24.0°C 61.3°F16.3°C 62% 2.1 mph SSE3.4 kmh SSE 2.2 mph3.5 kmh 29.74 in1007.1 mb 0.00 in0.0 mm 0.00 in0.0 mm 0.00 in0.0 mm
04:55 AM 75.7°F24.3°C 61.3°F16.3°C 62% 2.4 mph 3.9 kmh 2.4 mph3.9 kmh 29.76 in1007.8 mb 0.00 in0.0 mm 0.00 in0.0 mm 0.00 in0.0 mm
05:03 AM 74.8°F23.8°C 61.8°F16.6°C 64% 1.1 mph NNE1.8 kmh NNE 4.0 mph6.4 kmh 29.75 in1007.5 mb 0.00 in0.0 mm 0.00 in0.0 mm 0.00 in0.0 mm
05:10 AM 74.6°F23.7°C 62.0°F16.7°C 65% Calm Calm 1.3 mph2.1 kmh 29.75 in1007.5 mb 0.00 in0.0 mm 0.00 in0.0 mm 0.00 in0.0 mm
05:17 AM 73.7°F23.2°C 62.5°F16.9°C 68% Calm Calm 0.4 mph0.6 kmh 29.75 in1007.5 mb 0.00 in0.0 mm 0.00 in0.0 mm 0.00 in0.0 mm
05:24 AM 73.7°F23.2°C 43.4°F6.3°C 69% 1.5 mph S2.4 kmh S 1.5 mph2.4 kmh 29.75 in1007.5 mb 0.00 in0.0 mm 0.00 in0.0 mm 0.00 in0.0 mm
05:31 AM 73.5°F23.1°C 62.8°F17.1°C 69% 3.1 mph SSW5.0 kmh SSW 3.1 mph5.0 kmh 29.76 in1007.8 mb 0.00 in0.0 mm 0.00 in0.0 mm 0.00 in0.0 mm
05:36 AM 73.7°F23.2°C 62.5°F16.9°C 68% Calm Calm 3.1 mph5.0 kmh 29.75 in1007.5 mb 0.00 in0.0 mm 0.00 in0.0 mm 0.00 in0.0 mm
05:41 AM 74.1°F23.4°C 62.0°F16.7°C 66% 1.6 mph SSW2.6 kmh SSW 1.7 mph2.7 kmh 29.75 in1007.5 mb 0.00 in0.0 mm 0.00 in0.0 mm 0.00 in0.0 mm
05:46 AM 74.1°F23.4°C 62.0°F16.7°C 66% 1.1 mph SSW1.8 kmh SSW 1.7 mph2.7 kmh 29.75 in1007.5 mb 0.00 in0.0 mm 0.00 in0.0 mm 0.00 in0.0 mm
05:51 AM 74.3°F23.5°C 62.1°F16.7°C 66% 0.6 mph SSW1.0 kmh SSW 1.7 mph2.7 kmh 29.74 in1007.1 mb 0.00 in0.0 mm 0.00 in0.0 mm 0.00 in0.0 mm
05:56 AM 74.4°F23.6°C 62.3°F16.8°C 66% 4.6 mph SW7.4 kmh SW 4.6 mph7.4 kmh 29.74 in1007.1 mb 0.00 in0.0 mm 0.00 in0.0 mm 0.00 in0.0 mm
06:01 AM 74.1°F23.4°C 62.9°F17.2°C 68% 3.6 mph SSW5.8 kmh SSW 5.1 mph8.2 kmh 29.75 in1007.5 mb 0.00 in0.0 mm 0.00 in0.0 mm 0.00 in0.0 mm
06:06 AM 73.5°F23.1°C 62.8°F17.1°C 69% 2.2 mph SSW3.5 kmh SSW 5.1 mph8.2 kmh 29.74 in1007.1 mb 0.00 in0.0 mm 0.00 in0.0 mm 0.00 in0.0 mm
06:11 AM 74.1°F23.4°C 62.9°F17.2°C 68% 2.6 mph SW4.2 kmh SW 5.1 mph8.2 kmh 29.75 in1007.5 mb 0.00 in0.0 mm 0.00 in0.0 mm 0.00 in0.0 mm
06:16 AM 74.1°F23.4°C 63.7°F17.6°C 70% 3.1 mph SW5.0 kmh SW 4.2 mph6.8 kmh 29.75 in1007.5 mb 0.00 in0.0 mm 0.00 in0.0 mm 0.00 in0.0 mm
06:21 AM 73.7°F23.2°C 63.4°F17.4°C 70% 3.3 mph SW5.3 kmh SW 4.2 mph6.8 kmh 29.75 in1007.5 mb 0.00 in0.0 mm 0.00 in0.0 mm 0.00 in0.0 mm
06:26 AM 74.1°F23.4°C 63.7°F17.6°C 69% 0.8 mph S1.3 kmh S 3.3 mph5.3 kmh 29.75 in1007.5 mb 0.00 in0.0 mm 0.00 in0.0 mm 0.00 in0.0 mm
06:31 AM 74.8°F23.8°C 64.0°F17.8°C 69% 1.8 mph SSW2.9 kmh SSW 3.3 mph5.3 kmh 29.75 in1007.5 mb 0.00 in0.0 mm 0.00 in0.0 mm 0.00 in0.0 mm
06:36 AM 74.8°F23.8°C 64.0°F17.8°C 68% Calm Calm 2.4 mph3.9 kmh 29.75 in1007.5 mb 0.00 in0.0 mm 0.00 in0.0 mm 0.00 in0.0 mm
06:41 AM 75.5°F24.2°C 62.9°F17.2°C 65% Calm Calm 2.4 mph3.9 kmh 29.76 in1007.8 mb 0.00 in0.0 mm 0.00 in0.0 mm 0.00 in0.0 mm
06:46 AM 77.5°F25.3°C 59.5°F15.3°C 54% 3.5 mph SW5.6 kmh SW 4.4 mph7.1 kmh 29.75 in1007.5 mb 0.00 in0.0 mm 0.00 in0.0 mm 0.00 in0.0 mm
06:51 AM 77.9°F25.5°C 60.9°F16.1°C 56% 2.0 mph SW3.2 kmh SW 4.4 mph7.1 kmh 29.76 in1007.8 mb 0.00 in0.0 mm 0.00 in0.0 mm 0.00 in0.0 mm
06:56 AM 77.9°F25.5°C 61.4°F16.3°C 56% 2.6 mph SSW4.2 kmh SSW 3.3 mph5.3 kmh 29.75 in1007.5 mb 0.00 in0.0 mm 0.00 in0.0 mm 0.00 in0.0 mm
07:01 AM 78.0°F25.6°C 61.0°F16.1°C 56% 3.8 mph SSW6.1 kmh SSW 6.4 mph10.3 kmh 29.75 in1007.5 mb 0.00 in0.0 mm 0.00 in0.0 mm 0.00 in0.0 mm
07:06 AM 77.7°F25.4°C 61.7°F16.5°C 58% 0.4 mph WSW0.6 kmh WSW 6.4 mph10.3 kmh 29.75 in1007.5 mb 0.00 in0.0 mm 0.00 in0.0 mm 0.00 in0.0 mm
07:11 AM 77.5°F25.3°C 61.5°F16.4°C 58% Calm Calm 0.4 mph0.6 kmh 29.75 in1007.5 mb 0.00 in0.0 mm 0.00 in0.0 mm 0.00 in0.0 mm
07:16 AM 77.7°F25.4°C 61.7°F16.5°C 58% 0.4 mph SSW0.6 kmh SSW 0.4 mph0.6 kmh 29.75 in1007.5 mb 0.00 in0.0 mm 0.00 in0.0 mm 0.00 in0.0 mm
07:21 AM 77.7°F25.4°C 61.7°F16.5°C 57% Calm Calm 0.4 mph0.6 kmh 29.75 in1007.5 mb 0.00 in0.0 mm 0.00 in0.0 mm 0.00 in0.0 mm
07:26 AM 77.9°F25.5°C 61.9°F16.6°C 58% Calm Calm -- 29.75 in1007.5 mb 0.00 in0.0 mm 0.00 in0.0 mm 0.00 in0.0 mm
07:31 AM 77.7°F25.4°C 62.2°F16.8°C 59% Calm Calm 1.7 mph2.7 kmh 29.75 in1007.5 mb 0.00 in0.0 mm 0.00 in0.0 mm 0.00 in0.0 mm
07:36 AM 78.0°F25.6°C 63.1°F17.3°C 60% Calm Calm 1.7 mph2.7 kmh 29.75 in1007.5 mb 0.00 in0.0 mm 0.00 in0.0 mm 0.00 in0.0 mm
07:41 AM 78.6°F25.9°C 63.6°F17.6°C 60% Calm Calm -- 29.75 in1007.5 mb 0.00 in0.0 mm 0.00 in0.0 mm 0.00 in0.0 mm
07:46 AM 80.2°F26.8°C 63.5°F17.5°C 57% Calm Calm -- 29.76 in1007.8 mb 0.00 in0.0 mm 0.00 in0.0 mm 0.00 in0.0 mm
07:51 AM 80.7°F27.1°C 63.5°F17.5°C 56% 0.4 mph ENE0.6 kmh ENE 0.4 mph0.6 kmh 29.76 in1007.8 mb 0.00 in0.0 mm 0.00 in0.0 mm 0.00 in0.0 mm
07:56 AM 81.3°F27.4°C 64.5°F18.1°C 57% Calm Calm 0.8 mph1.3 kmh 29.76 in1007.8 mb 0.00 in0.0 mm 0.00 in0.0 mm 0.00 in0.0 mm
08:01 AM 81.6°F27.6°C 64.3°F17.9°C 54% Calm Calm 2.0 mph3.2 kmh 29.76 in1007.8 mb 0.00 in0.0 mm 0.00 in0.0 mm 0.00 in0.0 mm
08:06 AM 81.6°F27.6°C 62.2°F16.8°C 52% 1.3 mph E2.1 kmh E 2.0 mph3.2 kmh 29.76 in1007.8 mb 0.00 in0.0 mm 0.00 in0.0 mm 0.00 in0.0 mm
08:11 AM 82.7°F28.2°C 62.2°F16.8°C 50% Calm Calm 1.5 mph2.4 kmh 29.75 in1007.5 mb 0.00 in0.0 mm 0.00 in0.0 mm 0.00 in0.0 mm
08:16 AM 83.4°F28.6°C 63.4°F17.4°C 51% Calm Calm 1.5 mph2.4 kmh 29.75 in1007.5 mb 0.00 in0.0 mm 0.00 in0.0 mm 0.00 in0.0 mm
08:21 AM 84.0°F28.9°C 63.5°F17.5°C 50% Calm Calm -- 29.76 in1007.8 mb 0.00 in0.0 mm 0.00 in0.0 mm 0.00 in0.0 mm
08:26 AM 84.3°F29.1°C 62.5°F16.9°C 47% 0.8 mph WSW1.3 kmh WSW 1.3 mph2.1 kmh 29.76 in1007.8 mb 0.00 in0.0 mm 0.00 in0.0 mm 0.00 in0.0 mm
08:31 AM 84.5°F29.2°C 62.7°F17.1°C 48% 0.8 mph WNW1.3 kmh WNW 1.3 mph2.1 kmh 29.76 in1007.8 mb 0.00 in0.0 mm 0.00 in0.0 mm 0.00 in0.0 mm
08:36 AM 84.7°F29.3°C 62.2°F16.8°C 47% 0.8 mph NW1.3 kmh NW 1.1 mph1.8 kmh 29.76 in1007.8 mb 0.00 in0.0 mm 0.00 in0.0 mm 0.00 in0.0 mm
08:41 AM 84.9°F29.4°C 62.4°F16.9°C 47% 0.4 mph W0.6 kmh W 1.1 mph1.8 kmh 29.76 in1007.8 mb 0.00 in0.0 mm 0.00 in0.0 mm 0.00 in0.0 mm
08:46 AM 85.8°F29.9°C 62.6°F17.0°C 46% Calm Calm 2.2 mph3.5 kmh 29.76 in1007.8 mb 0.00 in0.0 mm 0.00 in0.0 mm 0.00 in0.0 mm
08:51 AM 85.6°F29.8°C 61.8°F16.6°C 45% 2.0 mph SW3.2 kmh SW 2.2 mph3.5 kmh 29.76 in1007.8 mb 0.00 in0.0 mm 0.00 in0.0 mm 0.00 in0.0 mm
08:56 AM 85.6°F29.8°C 62.4°F16.9°C 46% 1.5 mph WSW2.4 kmh WSW 2.0 mph3.2 kmh 29.76 in1007.8 mb 0.00 in0.0 mm 0.00 in0.0 mm 0.00 in0.0 mm
09:01 AM 85.6°F29.8°C 62.4°F16.9°C 46% 0.7 mph WSW1.1 kmh WSW 2.0 mph3.2 kmh 29.76 in1007.8 mb 0.00 in0.0 mm 0.00 in0.0 mm 0.00 in0.0 mm
09:06 AM 85.6°F29.8°C 62.4°F16.9°C 46% 2.7 mph SSW4.3 kmh SSW 3.5 mph5.6 kmh 29.76 in1007.8 mb 0.00 in0.0 mm 0.00 in0.0 mm 0.00 in0.0 mm
09:11 AM 84.9°F29.4°C 61.1°F16.2°C 46% 3.5 mph SW5.6 kmh SW 3.5 mph5.6 kmh 29.76 in1007.8 mb 0.00 in0.0 mm 0.00 in0.0 mm 0.00 in0.0 mm
09:16 AM 85.8°F29.9°C 60.7°F15.9°C 43% 1.2 mph SW1.9 kmh SW 3.5 mph5.6 kmh 29.76 in1007.8 mb 0.00 in0.0 mm 0.00 in0.0 mm 0.00 in0.0 mm
09:21 AM 86.5°F30.3°C 62.6°F17.0°C 45% 1.5 mph S2.4 kmh S 1.5 mph2.4 kmh 29.76 in1007.8 mb 0.00 in0.0 mm 0.00 in0.0 mm 0.00 in0.0 mm
09:26 AM 87.0°F30.6°C 62.4°F16.9°C 44% 1.3 mph W2.1 kmh W 1.5 mph2.4 kmh 29.77 in1008.1 mb 0.00 in0.0 mm 0.00 in0.0 mm 0.00 in0.0 mm
09:31 AM 87.4°F30.8°C 61.5°F16.4°C 42% 0.7 mph WSW1.1 kmh WSW 2.0 mph3.2 kmh 29.76 in1007.8 mb 0.00 in0.0 mm 0.00 in0.0 mm 0.00 in0.0 mm
09:36 AM 87.8°F31.0°C 61.8°F16.6°C 42% 1.7 mph NNW2.7 kmh NNW 2.0 mph3.2 kmh 29.77 in1008.1 mb 0.00 in0.0 mm 0.00 in0.0 mm 0.00 in0.0 mm
09:41 AM 88.3°F31.3°C 62.3°F16.8°C 42% Calm Calm 2.0 mph3.2 kmh 29.77 in1008.1 mb 0.00 in0.0 mm 0.00 in0.0 mm 0.00 in0.0 mm
09:46 AM 89.0°F31.7°C 62.2°F16.8°C 41% 1.3 mph WSW2.1 kmh WSW 1.7 mph2.7 kmh 29.76 in1007.8 mb 0.00 in0.0 mm 0.00 in0.0 mm 0.00 in0.0 mm
09:51 AM 88.7°F31.5°C 61.3°F16.3°C 40% 4.0 mph SSW6.4 kmh SSW 4.0 mph6.4 kmh 29.76 in1007.8 mb 0.00 in0.0 mm 0.00 in0.0 mm 0.00 in0.0 mm
09:56 AM 88.5°F31.4°C 61.1°F16.2°C 41% 3.2 mph S5.1 kmh S 4.0 mph6.4 kmh 29.76 in1007.8 mb 0.00 in0.0 mm 0.00 in0.0 mm 0.00 in0.0 mm
10:01 AM 88.1°F31.2°C 62.1°F16.7°C 42% 0.6 mph W1.0 kmh W 4.4 mph7.1 kmh 29.76 in1007.8 mb 0.00 in0.0 mm 0.00 in0.0 mm 0.00 in0.0 mm
10:06 AM 88.5°F31.4°C 61.8°F16.6°C 41% 1.8 mph W2.9 kmh W 4.4 mph7.1 kmh 29.76 in1007.8 mb 0.00 in0.0 mm 0.00 in0.0 mm 0.00 in0.0 mm
10:11 AM 88.1°F31.2°C 62.1°F16.7°C 42% 2.4 mph WSW3.9 kmh WSW 2.9 mph4.7 kmh 29.76 in1007.8 mb 0.00 in0.0 mm 0.00 in0.0 mm 0.00 in0.0 mm
10:16 AM 88.3°F31.3°C 61.6°F16.4°C 41% 1.8 mph WSW2.9 kmh WSW 6.9 mph11.1 kmh 29.76 in1007.8 mb 0.00 in0.0 mm 0.00 in0.0 mm 0.00 in0.0 mm
10:21 AM 88.5°F31.4°C 61.8°F16.6°C 41% 1.3 mph W2.1 kmh W 6.9 mph11.1 kmh 29.76 in1007.8 mb 0.00 in0.0 mm 0.00 in0.0 mm 0.00 in0.0 mm
10:26 AM 88.3°F31.3°C 61.6°F16.4°C 41% 2.7 mph S4.3 kmh S 6.0 mph9.7 kmh 29.76 in1007.8 mb 0.00 in0.0 mm 0.00 in0.0 mm 0.00 in0.0 mm
10:31 AM 88.8°F31.6°C 61.4°F16.3°C 40% 3.0 mph WNW4.8 kmh WNW 6.0 mph9.7 kmh 29.76 in1007.8 mb 0.00 in0.0 mm 0.00 in0.0 mm 0.00 in0.0 mm
10:36 AM 88.7°F31.5°C 61.9°F16.6°C 41% 2.1 mph NW3.4 kmh NW 5.3 mph8.5 kmh 29.76 in1007.8 mb 0.00 in0.0 mm 0.00 in0.0 mm 0.00 in0.0 mm
10:42 AM 89.2°F31.8°C 61.7°F16.5°C 40% 2.0 mph SW3.2 kmh SW 5.3 mph8.5 kmh 29.76 in1007.8 mb 0.00 in0.0 mm 0.00 in0.0 mm 0.00 in0.0 mm
10:46 AM 89.2°F31.8°C 61.7°F16.5°C 40% 1.1 mph W1.8 kmh W 2.4 mph3.9 kmh 29.76 in1007.8 mb 0.00 in0.0 mm 0.00 in0.0 mm 0.00 in0.0 mm
10:51 AM 88.8°F31.6°C 61.4°F16.3°C 40% 0.8 mph SSW1.3 kmh SSW 3.3 mph5.3 kmh 29.76 in1007.8 mb 0.00 in0.0 mm 0.00 in0.0 mm 0.00 in0.0 mm
10:57 AM 88.8°F31.6°C 61.4°F16.3°C 40% 4.1 mph SW6.6 kmh SW 4.4 mph7.1 kmh 29.77 in1008.1 mb 0.00 in0.0 mm 0.00 in0.0 mm 0.00 in0.0 mm
11:02 AM 88.3°F31.3°C 61.6°F16.4°C 42% 3.5 mph SW5.6 kmh SW 4.4 mph7.1 kmh 29.77 in1008.1 mb 0.00 in0.0 mm 0.00 in0.0 mm 0.00 in0.0 mm
11:07 AM 88.8°F31.6°C 61.4°F16.3°C 40% 2.0 mph WSW3.2 kmh WSW 3.5 mph5.6 kmh 29.77 in1008.1 mb 0.00 in0.0 mm 0.00 in0.0 mm 0.00 in0.0 mm
11:12 AM 89.4°F31.9°C 61.9°F16.6°C 40% 2.3 mph SW3.7 kmh SW 3.5 mph5.6 kmh 29.77 in1008.1 mb 0.00 in0.0 mm 0.00 in0.0 mm 0.00 in0.0 mm
11:17 AM 89.4°F31.9°C 61.9°F16.6°C 40% 3.5 mph SSE5.6 kmh SSE 4.0 mph6.4 kmh 29.77 in1008.1 mb 0.00 in0.0 mm 0.00 in0.0 mm 0.00 in0.0 mm
11:22 AM 90.1°F32.3°C 62.5°F16.9°C 40% 1.6 mph WNW2.6 kmh WNW 4.0 mph6.4 kmh 29.77 in1008.1 mb 0.00 in0.0 mm 0.00 in0.0 mm 0.00 in0.0 mm
11:27 AM 89.9°F32.2°C 61.5°F16.4°C 39% 1.9 mph WSW3.1 kmh WSW 4.0 mph6.4 kmh 29.76 in1007.8 mb 0.00 in0.0 mm 0.00 in0.0 mm 0.00 in0.0 mm
11:32 AM 90.1°F32.3°C 62.5°F16.9°C 39% 2.0 mph SW3.2 kmh SW 2.4 mph3.9 kmh 29.76 in1007.8 mb 0.00 in0.0 mm 0.00 in0.0 mm 0.00 in0.0 mm
11:37 AM 90.8°F32.7°C 62.4°F16.9°C 39% 3.8 mph WSW6.1 kmh WSW 3.8 mph6.1 kmh 29.76 in1007.8 mb 0.00 in0.0 mm 0.00 in0.0 mm 0.00 in0.0 mm
11:42 AM 91.2°F32.9°C 61.9°F16.6°C 38% 1.6 mph SW2.6 kmh SW 3.8 mph6.1 kmh 29.76 in1007.8 mb 0.00 in0.0 mm 0.00 in0.0 mm 0.00 in0.0 mm
11:47 AM 91.5°F33.1°C 63.0°F17.2°C 36% 4.9 mph SSE7.9 kmh SSE 4.9 mph7.9 kmh 29.77 in1008.1 mb 0.00 in0.0 mm 0.00 in0.0 mm 0.00 in0.0 mm
11:52 AM 91.0°F32.8°C 62.5°F16.9°C 39% 2.7 mph W4.3 kmh W 4.9 mph7.9 kmh 29.77 in1008.1 mb 0.00 in0.0 mm 0.00 in0.0 mm 0.00 in0.0 mm
11:57 AM 91.7°F33.2°C 62.4°F16.9°C 38% 2.5 mph WSW4.0 kmh WSW 5.5 mph8.9 kmh 29.77 in1008.1 mb 0.00 in0.0 mm 0.00 in0.0 mm 0.00 in0.0 mm
12:02 PM 90.5°F32.5°C 62.0°F16.7°C 39% 3.2 mph S5.1 kmh S 5.5 mph8.9 kmh 29.77 in1008.1 mb 0.00 in0.0 mm 0.00 in0.0 mm 0.00 in0.0 mm
12:07 PM 90.3°F32.4°C 61.9°F16.6°C 39% Calm Calm 5.5 mph8.9 kmh 29.77 in1008.1 mb 0.00 in0.0 mm 0.00 in0.0 mm 0.00 in0.0 mm
12:12 PM 90.3°F32.4°C 66.5°F19.2°C 46% 4.8 mph NE7.7 kmh NE 4.9 mph7.9 kmh 29.77 in1008.1 mb 0.00 in0.0 mm 0.00 in0.0 mm 0.00 in0.0 mm
12:17 PM 88.8°F31.6°C 67.8°F19.9°C 50% 2.8 mph N4.5 kmh N 4.9 mph7.9 kmh 29.77 in1008.1 mb 0.00 in0.0 mm 0.00 in0.0 mm 0.00 in0.0 mm
12:22 PM 87.6°F30.9°C 67.8°F19.9°C 52% 6.6 mph NE10.6 kmh NE 9.6 mph15.4 kmh 29.77 in1008.1 mb 0.00 in0.0 mm 0.00 in0.0 mm 0.00 in0.0 mm
12:27 PM 86.5°F30.3°C 67.8°F19.9°C 54% 8.7 mph NE14.0 kmh NE 10.0 mph16.1 kmh 29.77 in1008.1 mb 0.00 in0.0 mm 0.00 in0.0 mm 0.00 in0.0 mm
12:32 PM 85.2°F29.6°C 67.7°F19.8°C 56% 7.8 mph NNE12.6 kmh NNE 10.2 mph16.4 kmh 29.77 in1008.1 mb 0.00 in0.0 mm 0.00 in0.0 mm 0.00 in0.0 mm
12:37 PM 84.9°F29.4°C 67.9°F19.9°C 57% 7.5 mph NE12.1 kmh NE 10.2 mph16.4 kmh 29.77 in1008.1 mb 0.00 in0.0 mm 0.00 in0.0 mm 0.00 in0.0 mm
12:42 PM 84.3°F29.1°C 69.5°F20.8°C 61% 6.1 mph NNE9.8 kmh NNE 9.6 mph15.4 kmh 29.77 in1008.1 mb 0.00 in0.0 mm 0.00 in0.0 mm 0.00 in0.0 mm
12:47 PM 84.5°F29.2°C 70.1°F21.2°C 62% 6.7 mph NNE10.8 kmh NNE 9.3 mph15.0 kmh 29.77 in1008.1 mb 0.00 in0.0 mm 0.00 in0.0 mm 0.00 in0.0 mm
12:52 PM 83.6°F28.7°C 69.7°F20.9°C 63% 6.5 mph NE10.5 kmh NE 10.9 mph17.5 kmh 29.77 in1008.1 mb 0.00 in0.0 mm 0.00 in0.0 mm 0.00 in0.0 mm
12:57 PM 83.6°F28.7°C 69.7°F20.9°C 63% 2.6 mph N4.2 kmh N 10.9 mph17.5 kmh 29.77 in1008.1 mb 0.00 in0.0 mm 0.00 in0.0 mm 0.00 in0.0 mm
01:02 PM 83.4°F28.6°C 69.0°F20.6°C 62% 4.7 mph NE7.6 kmh NE 8.7 mph14.0 kmh 29.77 in1008.1 mb 0.00 in0.0 mm 0.00 in0.0 mm 0.00 in0.0 mm
01:07 PM 83.4°F28.6°C 68.6°F20.3°C 61% 5.2 mph NNE8.4 kmh NNE 6.4 mph10.3 kmh 29.77 in1008.1 mb 0.00 in0.0 mm 0.00 in0.0 mm 0.00 in0.0 mm
01:12 PM 83.8°F28.8°C 68.5°F20.3°C 59% 4.9 mph NNE7.9 kmh NNE 6.4 mph10.3 kmh 29.76 in1007.8 mb 0.00 in0.0 mm 0.00 in0.0 mm 0.00 in0.0 mm
01:17 PM 84.5°F29.2°C 68.7°F20.4°C 59% 2.5 mph N4.0 kmh N 5.8 mph9.3 kmh 29.77 in1008.1 mb 0.00 in0.0 mm 0.00 in0.0 mm 0.00 in0.0 mm
01:22 PM 84.9°F29.4°C 69.0°F20.6°C 59% 2.4 mph NNE3.9 kmh NNE 4.6 mph7.4 kmh 29.77 in1008.1 mb 0.00 in0.0 mm 0.00 in0.0 mm 0.00 in0.0 mm
01:27 PM 84.9°F29.4°C 68.5°F20.3°C 58% 3.5 mph NE5.6 kmh NE 4.6 mph7.4 kmh 29.76 in1007.8 mb 0.00 in0.0 mm 0.00 in0.0 mm 0.00 in0.0 mm
01:32 PM 84.5°F29.2°C 68.7°F20.4°C 59% 4.6 mph N7.4 kmh N 8.7 mph14.0 kmh 29.76 in1007.8 mb 0.00 in0.0 mm 0.00 in0.0 mm 0.00 in0.0 mm
01:37 PM 84.3°F29.1°C 68.5°F20.3°C 58% 3.2 mph NE5.1 kmh NE 9.8 mph15.8 kmh 29.76 in1007.8 mb 0.00 in0.0 mm 0.00 in0.0 mm 0.00 in0.0 mm
01:42 PM 84.3°F29.1°C 68.5°F20.3°C 59% 3.6 mph NE5.8 kmh NE 9.8 mph15.8 kmh 29.76 in1007.8 mb 0.00 in0.0 mm 0.00 in0.0 mm 0.00 in0.0 mm
01:47 PM 84.9°F29.4°C 67.4°F19.7°C 56% 4.1 mph NE6.6 kmh NE 5.8 mph9.3 kmh 29.77 in1008.1 mb 0.00 in0.0 mm 0.00 in0.0 mm 0.00 in0.0 mm
01:52 PM 84.7°F29.3°C 67.8°F19.9°C 57% 1.8 mph NE2.9 kmh NE 6.9 mph11.1 kmh 29.77 in1008.1 mb 0.00 in0.0 mm 0.00 in0.0 mm 0.00 in0.0 mm
01:57 PM 84.7°F29.3°C 67.8°F19.9°C 56% 2.4 mph N3.9 kmh N 6.9 mph11.1 kmh 29.77 in1008.1 mb 0.00 in0.0 mm 0.00 in0.0 mm 0.00 in0.0 mm
02:02 PM 84.0°F28.9°C 67.6°F19.8°C 58% 4.4 mph NE7.1 kmh NE 6.9 mph11.1 kmh 29.76 in1007.8 mb 0.00 in0.0 mm 0.00 in0.0 mm 0.00 in0.0 mm
02:08 PM 84.0°F28.9°C 68.2°F20.1°C 59% 1.6 mph NE2.6 kmh NE 6.9 mph11.1 kmh 29.76 in1007.8 mb 0.00 in0.0 mm 0.00 in0.0 mm 0.00 in0.0 mm
02:13 PM 84.3°F29.1°C 68.5°F20.3°C 59% 1.7 mph N2.7 kmh N 5.8 mph9.3 kmh 29.76 in1007.8 mb 0.00 in0.0 mm 0.00 in0.0 mm 0.00 in0.0 mm
02:18 PM 84.2°F29.0°C 68.3°F20.2°C 59% 3.5 mph NNE5.6 kmh NNE 4.6 mph7.4 kmh 29.76 in1007.8 mb 0.00 in0.0 mm 0.00 in0.0 mm 0.00 in0.0 mm
02:23 PM 84.2°F29.0°C 68.3°F20.2°C 59% 3.3 mph NE5.3 kmh NE 4.6 mph7.4 kmh 29.76 in1007.8 mb 0.00 in0.0 mm 0.00 in0.0 mm 0.00 in0.0 mm
02:28 PM 84.3°F29.1°C 68.5°F20.3°C 59% 3.9 mph N6.3 kmh N 4.6 mph7.4 kmh 29.76 in1007.8 mb 0.00 in0.0 mm 0.00 in0.0 mm 0.00 in0.0 mm
02:33 PM 84.5°F29.2°C 68.7°F20.4°C 59% 1.7 mph NE2.7 kmh NE 4.0 mph6.4 kmh 29.76 in1007.8 mb 0.00 in0.0 mm 0.00 in0.0 mm 0.00 in0.0 mm
02:38 PM 84.7°F29.3°C 66.7°F19.3°C 55% 5.3 mph N8.5 kmh N 6.4 mph10.3 kmh 29.76 in1007.8 mb 0.00 in0.0 mm 0.00 in0.0 mm 0.00 in0.0 mm
02:43 PM 84.3°F29.1°C 66.4°F19.1°C 55% 4.9 mph NNE7.9 kmh NNE 7.6 mph12.2 kmh 29.76 in1007.8 mb 0.00 in0.0 mm 0.00 in0.0 mm 0.00 in0.0 mm
02:48 PM 84.7°F29.3°C 66.2°F19.0°C 54% 6.0 mph NE9.7 kmh NE 7.6 mph12.2 kmh 29.76 in1007.8 mb 0.00 in0.0 mm 0.00 in0.0 mm 0.00 in0.0 mm
02:53 PM 85.1°F29.5°C 66.0°F18.9°C 53% 4.3 mph NNE6.9 kmh NNE 6.0 mph9.7 kmh 29.75 in1007.5 mb 0.00 in0.0 mm 0.00 in0.0 mm 0.00 in0.0 mm
02:58 PM 85.8°F29.9°C 66.1°F18.9°C 52% 2.8 mph NNE4.5 kmh NNE 6.0 mph9.7 kmh 29.76 in1007.8 mb 0.00 in0.0 mm 0.00 in0.0 mm 0.00 in0.0 mm
03:03 PM 86.1°F30.1°C 65.9°F18.8°C 50% 6.3 mph NE10.1 kmh NE 7.8 mph12.6 kmh 29.75 in1007.5 mb 0.00 in0.0 mm 0.00 in0.0 mm 0.00 in0.0 mm
03:08 PM 86.3°F30.2°C 64.9°F18.3°C 49% 3.7 mph NNE6.0 kmh NNE 7.8 mph12.6 kmh 29.75 in1007.5 mb 0.00 in0.0 mm 0.00 in0.0 mm 0.00 in0.0 mm
03:13 PM 86.1°F30.1°C 65.4°F18.6°C 50% 3.8 mph NNE6.1 kmh NNE 7.1 mph11.4 kmh 29.75 in1007.5 mb 0.00 in0.0 mm 0.00 in0.0 mm 0.00 in0.0 mm
03:18 PM 86.5°F30.3°C 65.1°F18.4°C 50% 4.3 mph NNE6.9 kmh NNE 6.4 mph10.3 kmh 29.74 in1007.1 mb 0.00 in0.0 mm 0.00 in0.0 mm 0.00 in0.0 mm
03:23 PM 86.7°F30.4°C 66.4°F19.1°C 51% 4.1 mph NNW6.6 kmh NNW 6.2 mph10.0 kmh 29.75 in1007.5 mb 0.00 in0.0 mm 0.00 in0.0 mm 0.00 in0.0 mm
03:28 PM 86.7°F30.4°C 67.0°F19.4°C 52% 4.7 mph NNE7.6 kmh NNE 4.9 mph7.9 kmh 29.75 in1007.5 mb 0.00 in0.0 mm 0.00 in0.0 mm 0.00 in0.0 mm
03:33 PM 86.5°F30.3°C 66.8°F19.3°C 52% 4.6 mph NE7.4 kmh NE 8.7 mph14.0 kmh 29.75 in1007.5 mb 0.00 in0.0 mm 0.00 in0.0 mm 0.00 in0.0 mm
03:38 PM 87.0°F30.6°C 67.3°F19.6°C 52% 1.5 mph NNE2.4 kmh NNE 8.7 mph14.0 kmh 29.75 in1007.5 mb 0.00 in0.0 mm 0.00 in0.0 mm 0.00 in0.0 mm
03:43 PM 87.0°F30.6°C 67.3°F19.6°C 52% 4.7 mph N7.6 kmh N 8.2 mph13.2 kmh 29.75 in1007.5 mb 0.00 in0.0 mm 0.00 in0.0 mm 0.00 in0.0 mm
03:48 PM 86.5°F30.3°C 67.3°F19.6°C 52% 5.1 mph NNE8.2 kmh NNE 8.2 mph13.2 kmh 29.75 in1007.5 mb 0.00 in0.0 mm 0.00 in0.0 mm 0.00 in0.0 mm
03:53 PM 86.3°F30.2°C 67.2°F19.6°C 53% 5.7 mph NNE9.2 kmh NNE 8.2 mph13.2 kmh 29.75 in1007.5 mb 0.00 in0.0 mm 0.00 in0.0 mm 0.00 in0.0 mm
03:58 PM 86.5°F30.3°C 67.3°F19.6°C 53% 3.0 mph NNE4.8 kmh NNE 6.7 mph10.8 kmh 29.75 in1007.5 mb 0.00 in0.0 mm 0.00 in0.0 mm 0.00 in0.0 mm
04:03 PM 86.5°F30.3°C 66.8°F19.3°C 52% 6.2 mph NNE10.0 kmh NNE 8.5 mph13.7 kmh 29.75 in1007.5 mb 0.00 in0.0 mm 0.00 in0.0 mm 0.00 in0.0 mm
04:08 PM 86.1°F30.1°C 67.0°F19.4°C 53% 0.6 mph NE1.0 kmh NE 8.5 mph13.7 kmh 29.75 in1007.5 mb 0.00 in0.0 mm 0.00 in0.0 mm 0.00 in0.0 mm
04:13 PM 85.8°F29.9°C 66.7°F19.3°C 53% 4.0 mph N6.4 kmh N 4.4 mph7.1 kmh 29.74 in1007.1 mb 0.00 in0.0 mm 0.00 in0.0 mm 0.00 in0.0 mm
04:18 PM 85.6°F29.8°C 66.0°F18.9°C 53% 2.0 mph NE3.2 kmh NE 4.4 mph7.1 kmh 29.74 in1007.1 mb 0.00 in0.0 mm 0.00 in0.0 mm 0.00 in0.0 mm
04:23 PM 86.0°F30.0°C 66.8°F19.3°C 53% 2.0 mph NE3.2 kmh NE 3.5 mph5.6 kmh 29.74 in1007.1 mb 0.00 in0.0 mm 0.00 in0.0 mm 0.00 in0.0 mm
04:28 PM 86.1°F30.1°C 67.0°F19.4°C 53% 1.1 mph NNE1.8 kmh NNE 3.8 mph6.1 kmh 29.73 in1006.8 mb 0.00 in0.0 mm 0.00 in0.0 mm 0.00 in0.0 mm
04:33 PM 86.3°F30.2°C 67.2°F19.6°C 53% 2.2 mph 3.5 kmh 4.0 mph6.4 kmh 29.73 in1006.8 mb 0.00 in0.0 mm 0.00 in0.0 mm 0.00 in0.0 mm
04:38 PM 87.0°F30.6°C 67.8°F19.9°C 53% Calm Calm 4.0 mph6.4 kmh 29.73 in1006.8 mb 0.00 in0.0 mm 0.00 in0.0 mm 0.00 in0.0 mm
04:43 PM 87.6°F30.9°C 67.8°F19.9°C 52% 2.5 mph N4.0 kmh N 4.2 mph6.8 kmh 29.73 in1006.8 mb 0.00 in0.0 mm 0.00 in0.0 mm 0.00 in0.0 mm
04:48 PM 87.6°F30.9°C 67.8°F19.9°C 52% 2.7 mph NNE4.3 kmh NNE 4.2 mph6.8 kmh 29.73 in1006.8 mb 0.00 in0.0 mm 0.00 in0.0 mm 0.00 in0.0 mm
04:53 PM 87.8°F31.0°C 68.5°F20.3°C 53% 0.5 mph N0.8 kmh N 4.2 mph6.8 kmh 29.73 in1006.8 mb 0.00 in0.0 mm 0.00 in0.0 mm 0.00 in0.0 mm
04:58 PM 88.5°F31.4°C 68.6°F20.3°C 52% 2.9 mph SSW4.7 kmh SSW 2.9 mph4.7 kmh 29.73 in1006.8 mb 0.00 in0.0 mm 0.00 in0.0 mm 0.00 in0.0 mm
05:01 PM 88.8°F31.6°C 68.4°F20.2°C 51% 3.9 mph SSW6.3 kmh SSW 4.2 mph6.8 kmh 29.73 in1006.8 mb 0.00 in0.0 mm 0.00 in0.0 mm 0.00 in0.0 mm
05:10 PM 88.5°F31.4°C 67.5°F19.7°C 50% 1.7 mph E2.7 kmh E 4.2 mph6.8 kmh 29.73 in1006.8 mb 0.00 in0.0 mm 0.00 in0.0 mm 0.00 in0.0 mm
05:19 PM 89.6°F32.0°C 67.2°F19.6°C 48% 1.3 mph WSW2.1 kmh WSW 2.2 mph3.5 kmh 29.73 in1006.8 mb 0.00 in0.0 mm 0.00 in0.0 mm 0.00 in0.0 mm
05:27 PM 89.7°F32.1°C 66.7°F19.3°C 47% 2.6 mph SW4.2 kmh SW 3.1 mph5.0 kmh 29.73 in1006.8 mb 0.00 in0.0 mm 0.00 in0.0 mm 0.00 in0.0 mm
05:35 PM 90.1°F32.3°C 66.4°F19.1°C 46% 3.2 mph S5.1 kmh S 4.9 mph7.9 kmh 29.73 in1006.8 mb 0.00 in0.0 mm 0.00 in0.0 mm 0.00 in0.0 mm
05:44 PM 88.7°F31.5°C 65.8°F18.8°C 47% 3.8 mph SW6.1 kmh SW 4.9 mph7.9 kmh 29.73 in1006.8 mb 0.00 in0.0 mm 0.00 in0.0 mm 0.00 in0.0 mm
05:52 PM 88.3°F31.3°C 66.1°F18.9°C 48% 4.0 mph SSW6.4 kmh SSW 6.0 mph9.7 kmh 29.73 in1006.8 mb 0.00 in0.0 mm 0.00 in0.0 mm 0.00 in0.0 mm
06:00 PM 87.4°F30.8°C 65.9°F18.8°C 50% 6.7 mph SSW10.8 kmh SSW 8.0 mph12.9 kmh 29.72 in1006.4 mb 0.00 in0.0 mm 0.00 in0.0 mm 0.00 in0.0 mm
06:06 PM 87.4°F30.8°C 65.9°F18.8°C 49% 5.5 mph SW8.9 kmh SW 8.9 mph14.3 kmh 29.73 in1006.8 mb 0.00 in0.0 mm 0.00 in0.0 mm 0.00 in0.0 mm
06:11 PM 87.4°F30.8°C 65.9°F18.8°C 49% 4.2 mph S6.8 kmh S 8.9 mph14.3 kmh 29.73 in1006.8 mb 0.00 in0.0 mm 0.00 in0.0 mm 0.00 in0.0 mm
06:16 PM 87.4°F30.8°C 66.5°F19.2°C 50% 4.9 mph SSW7.9 kmh SSW 9.6 mph15.4 kmh 29.72 in1006.4 mb 0.00 in0.0 mm 0.00 in0.0 mm 0.00 in0.0 mm
06:21 PM 86.9°F30.5°C 66.6°F19.2°C 51% 6.7 mph SW10.8 kmh SW 9.6 mph15.4 kmh 29.72 in1006.4 mb 0.00 in0.0 mm 0.00 in0.0 mm 0.00 in0.0 mm
06:26 PM 87.2°F30.7°C 66.9°F19.4°C 51% 3.9 mph SW6.3 kmh SW 9.6 mph15.4 kmh 29.72 in1006.4 mb 0.00 in0.0 mm 0.00 in0.0 mm 0.00 in0.0 mm
06:31 PM 86.7°F30.4°C 66.4°F19.1°C 51% 7.0 mph SW11.3 kmh SW 8.9 mph14.3 kmh 29.72 in1006.4 mb 0.00 in0.0 mm 0.00 in0.0 mm 0.00 in0.0 mm
06:36 PM 86.5°F30.3°C 66.8°F19.3°C 52% 6.2 mph SW10.0 kmh SW 8.9 mph14.3 kmh 29.72 in1006.4 mb 0.00 in0.0 mm 0.00 in0.0 mm 0.00 in0.0 mm
06:41 PM 86.3°F30.2°C 66.6°F19.2°C 52% 4.3 mph SW6.9 kmh SW 7.8 mph12.6 kmh 29.72 in1006.4 mb 0.00 in0.0 mm 0.00 in0.0 mm 0.00 in0.0 mm
06:46 PM 86.1°F30.1°C 66.5°F19.2°C 52% 5.8 mph SSW9.3 kmh SSW 8.5 mph13.7 kmh 29.72 in1006.4 mb 0.00 in0.0 mm 0.00 in0.0 mm 0.00 in0.0 mm
06:51 PM 85.6°F29.8°C 66.0°F18.9°C 52% 6.9 mph SSW11.1 kmh SSW 9.3 mph15.0 kmh 29.73 in1006.8 mb 0.00 in0.0 mm 0.00 in0.0 mm 0.00 in0.0 mm
06:56 PM 85.6°F29.8°C 66.5°F19.2°C 53% 4.5 mph S7.2 kmh S 9.3 mph15.0 kmh 29.73 in1006.8 mb 0.00 in0.0 mm 0.00 in0.0 mm 0.00 in0.0 mm
07:01 PM 85.2°F29.6°C 66.2°F19.0°C 53% 3.9 mph SSW6.3 kmh SSW 7.1 mph11.4 kmh 29.73 in1006.8 mb 0.00 in0.0 mm 0.00 in0.0 mm 0.00 in0.0 mm
07:06 PM 85.2°F29.6°C 66.7°F19.3°C 54% 4.1 mph W6.6 kmh W 7.1 mph11.4 kmh 29.73 in1006.8 mb 0.00 in0.0 mm 0.00 in0.0 mm 0.00 in0.0 mm
07:11 PM 84.7°F29.3°C 66.2°F19.0°C 54% 3.8 mph SW6.1 kmh SW 7.1 mph11.4 kmh 29.73 in1006.8 mb 0.00 in0.0 mm 0.00 in0.0 mm 0.00 in0.0 mm
07:16 PM 84.3°F29.1°C 65.4°F18.6°C 53% 8.6 mph SSW13.8 kmh SSW 10.2 mph16.4 kmh 29.73 in1006.8 mb 0.00 in0.0 mm 0.00 in0.0 mm 0.00 in0.0 mm
07:21 PM 84.2°F29.0°C 65.2°F18.4°C 53% 6.7 mph SSW10.8 kmh SSW 10.2 mph16.4 kmh 29.73 in1006.8 mb 0.00 in0.0 mm 0.00 in0.0 mm 0.00 in0.0 mm
07:26 PM 84.0°F28.9°C 65.0°F18.3°C 53% 6.5 mph SSW10.5 kmh SSW 9.3 mph15.0 kmh 29.73 in1006.8 mb 0.00 in0.0 mm 0.00 in0.0 mm 0.00 in0.0 mm
07:31 PM 83.8°F28.8°C 65.4°F18.6°C 53% 6.5 mph SW10.5 kmh SW 7.6 mph12.2 kmh 29.72 in1006.4 mb 0.00 in0.0 mm 0.00 in0.0 mm 0.00 in0.0 mm
07:36 PM 83.4°F28.6°C 65.0°F18.3°C 54% 8.3 mph SSW13.4 kmh SSW 8.7 mph14.0 kmh 29.72 in1006.4 mb 0.00 in0.0 mm 0.00 in0.0 mm 0.00 in0.0 mm
07:41 PM 83.1°F28.4°C 64.6°F18.1°C 54% 4.8 mph S7.7 kmh S 8.7 mph14.0 kmh 29.72 in1006.4 mb 0.00 in0.0 mm 0.00 in0.0 mm 0.00 in0.0 mm
07:46 PM 82.9°F28.3°C 64.5°F18.1°C 54% 7.4 mph SSW11.9 kmh SSW 8.9 mph14.3 kmh 29.72 in1006.4 mb 0.00 in0.0 mm 0.00 in0.0 mm 0.00 in0.0 mm
07:51 PM 82.7°F28.2°C 64.3°F17.9°C 54% 4.1 mph S6.6 kmh S 8.9 mph14.3 kmh 29.72 in1006.4 mb 0.00 in0.0 mm 0.00 in0.0 mm 0.00 in0.0 mm
07:56 PM 82.4°F28.0°C 64.4°F18.0°C 55% 5.4 mph SW8.7 kmh SW 7.6 mph12.2 kmh 29.73 in1006.8 mb 0.00 in0.0 mm 0.00 in0.0 mm 0.00 in0.0 mm
08:01 PM 82.2°F27.9°C 64.3°F17.9°C 55% 7.3 mph SW11.7 kmh SW 9.8 mph15.8 kmh 29.73 in1006.8 mb 0.00 in0.0 mm 0.00 in0.0 mm 0.00 in0.0 mm
08:06 PM 82.0°F27.8°C 63.6°F17.6°C 54% 5.0 mph SSW8.0 kmh SSW 9.8 mph15.8 kmh 29.72 in1006.4 mb 0.00 in0.0 mm 0.00 in0.0 mm 0.00 in0.0 mm
08:11 PM 81.6°F27.6°C 63.8°F17.7°C 55% 7.9 mph SW12.7 kmh SW 10.2 mph16.4 kmh 29.73 in1006.8 mb 0.00 in0.0 mm 0.00 in0.0 mm 0.00 in0.0 mm
08:16 PM 81.6°F27.6°C 63.8°F17.7°C 55% 6.5 mph WSW10.5 kmh WSW 10.2 mph16.4 kmh 29.73 in1006.8 mb 0.00 in0.0 mm 0.00 in0.0 mm 0.00 in0.0 mm
08:21 PM 81.6°F27.6°C 63.3°F17.4°C 54% 6.8 mph SSW10.9 kmh SSW 9.1 mph14.6 kmh 29.72 in1006.4 mb 0.00 in0.0 mm 0.00 in0.0 mm 0.00 in0.0 mm
08:27 PM 81.5°F27.5°C 63.1°F17.3°C 54% 7.1 mph SW11.4 kmh SW 8.5 mph13.7 kmh 29.72 in1006.4 mb 0.00 in0.0 mm 0.00 in0.0 mm 0.00 in0.0 mm
08:32 PM 81.3°F27.4°C 62.9°F17.2°C 54% 6.5 mph SW10.5 kmh SW 8.2 mph13.2 kmh 29.73 in1006.8 mb 0.00 in0.0 mm 0.00 in0.0 mm 0.00 in0.0 mm
08:37 PM 81.1°F27.3°C 62.3°F16.8°C 53% 6.9 mph SW11.1 kmh SW 8.5 mph13.7 kmh 29.73 in1006.8 mb 0.00 in0.0 mm 0.00 in0.0 mm 0.00 in0.0 mm
08:43 PM 80.9°F27.2°C 62.1°F16.7°C 53% 3.2 mph SW5.1 kmh SW 8.5 mph13.7 kmh 29.73 in1006.8 mb 0.00 in0.0 mm 0.00 in0.0 mm 0.00 in0.0 mm
08:48 PM 80.7°F27.1°C 61.9°F16.6°C 53% 5.0 mph SW8.0 kmh SW 6.9 mph11.1 kmh 29.74 in1007.1 mb 0.00 in0.0 mm 0.00 in0.0 mm 0.00 in0.0 mm
08:52 PM 80.6°F27.0°C 61.8°F16.6°C 53% 4.0 mph S6.4 kmh S 6.2 mph10.0 kmh 29.74 in1007.1 mb 0.00 in0.0 mm 0.00 in0.0 mm 0.00 in0.0 mm
08:57 PM 80.2°F26.8°C 61.5°F16.4°C 53% 2.9 mph SSW4.7 kmh SSW 5.8 mph9.3 kmh 29.74 in1007.1 mb 0.00 in0.0 mm 0.00 in0.0 mm 0.00 in0.0 mm
09:02 PM 80.2°F26.8°C 62.0°F16.7°C 54% 4.3 mph SW6.9 kmh SW 6.2 mph10.0 kmh 29.74 in1007.1 mb 0.00 in0.0 mm 0.00 in0.0 mm 0.00 in0.0 mm
09:08 PM 79.8°F26.6°C 61.7°F16.5°C 54% 2.6 mph SW4.2 kmh SW 6.2 mph10.0 kmh 29.74 in1007.1 mb 0.00 in0.0 mm 0.00 in0.0 mm 0.00 in0.0 mm
09:13 PM 79.7°F26.5°C 62.0°F16.7°C 55% 4.6 mph S7.4 kmh S 6.2 mph10.0 kmh 29.74 in1007.1 mb 0.00 in0.0 mm 0.00 in0.0 mm 0.00 in0.0 mm
09:18 PM 79.5°F26.4°C 61.9°F16.6°C 55% 4.2 mph SSW6.8 kmh SSW 6.2 mph10.0 kmh 29.74 in1007.1 mb 0.00 in0.0 mm 0.00 in0.0 mm 0.00 in0.0 mm
09:23 PM 79.3°F26.3°C 61.7°F16.5°C 55% 3.9 mph SW6.3 kmh SW 4.6 mph7.4 kmh 29.74 in1007.1 mb 0.00 in0.0 mm 0.00 in0.0 mm 0.00 in0.0 mm
09:28 PM 79.3°F26.3°C 62.2°F16.8°C 56% 4.8 mph SSW7.7 kmh SSW 4.9 mph7.9 kmh 29.74 in1007.1 mb 0.00 in0.0 mm 0.00 in0.0 mm 0.00 in0.0 mm
09:33 PM 79.3°F26.3°C 62.2°F16.8°C 56% 2.9 mph S4.7 kmh S 6.0 mph9.7 kmh 29.74 in1007.1 mb 0.00 in0.0 mm 0.00 in0.0 mm 0.00 in0.0 mm
09:38 PM 78.8°F26.0°C 62.2°F16.8°C 57% 2.2 mph S3.5 kmh S 6.0 mph9.7 kmh 29.74 in1007.1 mb 0.00 in0.0 mm 0.00 in0.0 mm 0.00 in0.0 mm
09:43 PM 78.2°F25.7°C 61.7°F16.5°C 57% 4.0 mph SSW6.4 kmh SSW 5.5 mph8.9 kmh 29.74 in1007.1 mb 0.00 in0.0 mm 0.00 in0.0 mm 0.00 in0.0 mm
09:48 PM 78.0°F25.6°C 62.1°F16.7°C 58% 2.6 mph SSW4.2 kmh SSW 5.5 mph8.9 kmh 29.74 in1007.1 mb 0.00 in0.0 mm 0.00 in0.0 mm 0.00 in0.0 mm
09:53 PM 78.0°F25.6°C 62.1°F16.7°C 58% 3.8 mph WSW6.1 kmh WSW 3.8 mph6.1 kmh 29.74 in1007.1 mb 0.00 in0.0 mm 0.00 in0.0 mm 0.00 in0.0 mm
09:58 PM 78.2°F25.7°C 61.7°F16.5°C 57% 3.2 mph SW5.1 kmh SW 5.3 mph8.5 kmh 29.74 in1007.1 mb 0.00 in0.0 mm 0.00 in0.0 mm 0.00 in0.0 mm
10:03 PM 78.0°F25.6°C 61.5°F16.4°C 57% 4.3 mph SW6.9 kmh SW 5.3 mph8.5 kmh 29.74 in1007.1 mb 0.00 in0.0 mm 0.00 in0.0 mm 0.00 in0.0 mm
10:08 PM 78.0°F25.6°C 61.5°F16.4°C 57% 6.1 mph SW9.8 kmh SW 7.3 mph11.7 kmh 29.75 in1007.5 mb 0.00 in0.0 mm 0.00 in0.0 mm 0.00 in0.0 mm
10:13 PM 77.9°F25.5°C 61.4°F16.3°C 57% 6.7 mph SW10.8 kmh SW 8.7 mph14.0 kmh 29.76 in1007.8 mb 0.00 in0.0 mm 0.00 in0.0 mm 0.00 in0.0 mm
10:18 PM 77.9°F25.5°C 61.9°F16.6°C 58% 7.2 mph SSW11.6 kmh SSW 8.7 mph14.0 kmh 29.76 in1007.8 mb 0.00 in0.0 mm 0.00 in0.0 mm 0.00 in0.0 mm
10:23 PM 78.0°F25.6°C 61.5°F16.4°C 57% 7.0 mph SW11.3 kmh SW 8.7 mph14.0 kmh 29.76 in1007.8 mb 0.00 in0.0 mm 0.00 in0.0 mm 0.00 in0.0 mm
10:28 PM 78.0°F25.6°C 61.0°F16.1°C 56% 5.8 mph SW9.3 kmh SW 8.9 mph14.3 kmh 29.76 in1007.8 mb 0.00 in0.0 mm 0.00 in0.0 mm 0.00 in0.0 mm
10:33 PM 78.0°F25.6°C 61.0°F16.1°C 56% 4.7 mph WSW7.6 kmh WSW 8.9 mph14.3 kmh 29.76 in1007.8 mb 0.00 in0.0 mm 0.00 in0.0 mm 0.00 in0.0 mm
10:38 PM 77.9°F25.5°C 60.9°F16.1°C 56% 5.9 mph SW9.5 kmh SW 7.6 mph12.2 kmh 29.76 in1007.8 mb 0.00 in0.0 mm 0.00 in0.0 mm 0.00 in0.0 mm
10:43 PM 77.7°F25.4°C 60.7°F15.9°C 56% 3.7 mph SW6.0 kmh SW 7.6 mph12.2 kmh 29.76 in1007.8 mb 0.00 in0.0 mm 0.00 in0.0 mm 0.00 in0.0 mm
10:48 PM 77.7°F25.4°C 60.7°F15.9°C 56% 5.5 mph WSW8.9 kmh WSW 6.2 mph10.0 kmh 29.76 in1007.8 mb 0.00 in0.0 mm 0.00 in0.0 mm 0.00 in0.0 mm
10:53 PM 77.5°F25.3°C 60.5°F15.8°C 56% 5.1 mph SSW8.2 kmh SSW 7.8 mph12.6 kmh 29.76 in1007.8 mb 0.00 in0.0 mm 0.00 in0.0 mm 0.00 in0.0 mm
10:58 PM 77.5°F25.3°C 60.5°F15.8°C 56% 6.6 mph SW10.6 kmh SW 8.2 mph13.2 kmh 29.76 in1007.8 mb 0.00 in0.0 mm 0.00 in0.0 mm 0.00 in0.0 mm
11:03 PM 77.1°F25.1°C 60.2°F15.7°C 56% 4.5 mph SSW7.2 kmh SSW 8.2 mph13.2 kmh 29.76 in1007.8 mb 0.00 in0.0 mm 0.00 in0.0 mm 0.00 in0.0 mm
11:08 PM 77.1°F25.1°C 60.7°F15.9°C 57% 5.1 mph SW8.2 kmh SW 6.2 mph10.0 kmh 29.76 in1007.8 mb 0.00 in0.0 mm 0.00 in0.0 mm 0.00 in0.0 mm
11:13 PM 77.1°F25.1°C 60.2°F15.7°C 56% 5.9 mph SSW9.5 kmh SSW 8.7 mph14.0 kmh 29.76 in1007.8 mb 0.00 in0.0 mm 0.00 in0.0 mm 0.00 in0.0 mm
11:18 PM 77.1°F25.1°C 60.7°F15.9°C 57% 5.6 mph SSW9.0 kmh SSW 8.7 mph14.0 kmh 29.76 in1007.8 mb 0.00 in0.0 mm 0.00 in0.0 mm 0.00 in0.0 mm
11:23 PM 76.8°F24.9°C 60.3°F15.7°C 57% 5.3 mph SSW8.5 kmh SSW 7.6 mph12.2 kmh 29.76 in1007.8 mb 0.00 in0.0 mm 0.00 in0.0 mm 0.00 in0.0 mm
11:28 PM 76.8°F24.9°C 60.3°F15.7°C 57% 3.5 mph SSW5.6 kmh SSW 10.2 mph16.4 kmh 29.76 in1007.8 mb 0.00 in0.0 mm 0.00 in0.0 mm 0.00 in0.0 mm
11:33 PM 76.6°F24.8°C 60.2°F15.7°C 57% 5.3 mph S8.5 kmh S 10.2 mph16.4 kmh 29.76 in1007.8 mb 0.00 in0.0 mm 0.00 in0.0 mm 0.00 in0.0 mm
11:38 PM 76.6°F24.8°C 60.2°F15.7°C 57% 5.1 mph SW8.2 kmh SW 7.8 mph12.6 kmh 29.76 in1007.8 mb 0.00 in0.0 mm 0.00 in0.0 mm 0.00 in0.0 mm
11:43 PM 76.6°F24.8°C 60.7°F15.9°C 58% 3.1 mph SW5.0 kmh SW 7.1 mph11.4 kmh 29.76 in1007.8 mb 0.00 in0.0 mm 0.00 in0.0 mm 0.00 in0.0 mm
11:48 PM 76.2°F24.6°C 60.4°F15.8°C 58% 5.1 mph SSW8.2 kmh SSW 9.6 mph15.4 kmh 29.76 in1007.8 mb 0.00 in0.0 mm 0.00 in0.0 mm 0.00 in0.0 mm
11:53 PM 76.2°F24.6°C 60.4°F15.8°C 58% 4.4 mph SW7.1 kmh SW 9.6 mph15.4 kmh 29.77 in1008.1 mb 0.00 in0.0 mm 0.00 in0.0 mm 0.00 in0.0 mm
11:58 PM 75.9°F24.4°C 60.0°F15.6°C 58% 5.6 mph SW9.0 kmh SW 7.1 mph11.4 kmh 29.77 in1008.1 mb 0.00 in0.0 mm 0.00 in0.0 mm 0.00 in0.0 mm